Bloomington, IN

2:09 AM EDT on September 26, 2016 (GMT -0400)
Johnson Turtle Field | | Change Station

Elev 686 ft 39.12 °N, 86.51 °W | Updated 12 minutes ago

Clear
Clear
67.5 °F
Feels Like 67.5 °F
N
0.0
Wind Variable Wind from SSE
Gusts 0.0 mph

Today
High -- | Low -- °F
--% Chance of Precip.
Yesterday
High -- | Low -- °F
Precip. -- in
Pressure 29.94 in
Visibility 10.0 miles
Clouds Clear
Dew Point 67 °F
Humidity 97%
Rainfall 0.00 in
Snow Depth Not available.
7:37 AM 7:35 PM
Waning Crescent, 21% visible
METAR KBMG 260553Z AUTO 21006KT 10SM CLR 23/18 A2997 RMK AO2 LTG DSNT NW-NE SLP139 60000 T02330183 10244 20211 58014
Pressure 29.94 in
Visibility 10.0 miles
Clouds Clear
Dew Point 67 °F
Humidity 97%
Rainfall 0.00 in
Snow Depth Not available.
7:37 AM 7:35 PM
Waning Crescent, 21% visible
METAR KBMG 260553Z AUTO 21006KT 10SM CLR 23/18 A2997 RMK AO2 LTG DSNT NW-NE SLP139 60000 T02330183 10244 20211 58014

10-Day Weather Forecast

Almanac

Astronomy

Sep. 26, 2016 Rise Set
Actual Time
Civil Twilight
Nautical Twilight
Astronomical Twilight
Moon
Length of Visible Light
Length of Day
Tomorrow will be .
, % of the Moon is Illuminated

Today's Extremes

State Highs State Lows

Community

WunderPhotos

Upload Photos

1,941,853 photos uploaded!

WunderBlog® & News

Nearby

Air Quality

  Air Quality AQ Index Pollutant
Not available.

Snow Depth

Station Depth Elevation

Earthquake Activity

City Distance Mag. Time & Date
Minimum magnitude displayed is 2.5.

Coastal Water Temperatures

Place Temperature

Stations

Nearby Weather Stations

Station Location Temp. Windchill Dew Point Humidity Wind Precip. Elev Updated Type
                   

Watches & Warnings

There are currently no watches in effect.